sensor_id;sensor_type;location;lat;lon;timestamp;pressure;altitude;pressure_sealevel;temperature;humidity
66479;BME280;53294;47.912;13.526;2022-11-15T00:00:51;96188.84;;;9.41;61.18
66479;BME280;53294;47.912;13.526;2022-11-15T00:03:20;96185.09;;;9.42;61.36
66479;BME280;53294;47.912;13.526;2022-11-15T00:05:47;96187.09;;;9.31;61.22
66479;BME280;53294;47.912;13.526;2022-11-15T00:08:14;96179.25;;;9.35;60.87
66479;BME280;53294;47.912;13.526;2022-11-15T00:10:41;96175.63;;;9.26;61.37
66479;BME280;53294;47.912;13.526;2022-11-15T00:13:10;96169.25;;;9.22;61.50
66479;BME280;53294;47.912;13.526;2022-11-15T00:15:40;96171.28;;;9.30;60.84
66479;BME280;53294;47.912;13.526;2022-11-15T00:18:14;96166.03;;;9.20;61.32
66479;BME280;53294;47.912;13.526;2022-11-15T00:20:41;96168.88;;;9.09;62.05
66479;BME280;53294;47.912;13.526;2022-11-15T00:23:08;96173.59;;;9.18;61.27
66479;BME280;53294;47.912;13.526;2022-11-15T00:25:34;96169.25;;;9.22;61.32
66479;BME280;53294;47.912;13.526;2022-11-15T00:28:01;96168.72;;;9.20;61.69
66479;BME280;53294;47.912;13.526;2022-11-15T00:30:28;96169.69;;;9.29;60.93
66479;BME280;53294;47.912;13.526;2022-11-15T00:32:55;96166.72;;;9.30;60.74
66479;BME280;53294;47.912;13.526;2022-11-15T00:35:22;96176.09;;;9.09;61.59
66479;BME280;53294;47.912;13.526;2022-11-15T00:37:49;96168.97;;;8.99;61.89
66479;BME280;53294;47.912;13.526;2022-11-15T00:40:15;96171.66;;;8.99;62.12
66479;BME280;53294;47.912;13.526;2022-11-15T00:42:42;96167.44;;;8.93;63.19
66479;BME280;53294;47.912;13.526;2022-11-15T00:45:09;96159.78;;;9.05;62.12
66479;BME280;53294;47.912;13.526;2022-11-15T00:47:36;96158.19;;;9.04;62.28
66479;BME280;53294;47.912;13.526;2022-11-15T00:50:03;96155.47;;;9.09;61.50
66479;BME280;53294;47.912;13.526;2022-11-15T00:52:30;96158.53;;;9.22;60.92
66479;BME280;53294;47.912;13.526;2022-11-15T00:54:57;96151.09;;;9.13;61.24
66479;BME280;53294;47.912;13.526;2022-11-15T00:57:23;96150.16;;;9.04;61.67
66479;BME280;53294;47.912;13.526;2022-11-15T00:59:50;96148.38;;;9.19;61.01
66479;BME280;53294;47.912;13.526;2022-11-15T01:02:17;96149.25;;;9.14;60.95
66479;BME280;53294;47.912;13.526;2022-11-15T01:04:43;96144.75;;;9.09;61.22
66479;BME280;53294;47.912;13.526;2022-11-15T01:07:10;96145.44;;;8.96;62.06
66479;BME280;53294;47.912;13.526;2022-11-15T01:09:36;96139.97;;;9.06;61.55
66479;BME280;53294;47.912;13.526;2022-11-15T01:12:03;96149.63;;;9.02;61.78
66479;BME280;53294;47.912;13.526;2022-11-15T01:14:30;96142.00;;;9.14;61.01
66479;BME280;53294;47.912;13.526;2022-11-15T01:16:57;96154.03;;;8.93;61.87
66479;BME280;53294;47.912;13.526;2022-11-15T01:19:23;96145.16;;;8.73;62.73
66479;BME280;53294;47.912;13.526;2022-11-15T01:21:50;96140.81;;;8.77;62.72
66479;BME280;53294;47.912;13.526;2022-11-15T01:24:17;96128.53;;;8.71;62.79
66479;BME280;53294;47.912;13.526;2022-11-15T01:26:44;96129.03;;;8.78;62.04
66479;BME280;53294;47.912;13.526;2022-11-15T01:29:10;96126.28;;;8.84;61.79
66479;BME280;53294;47.912;13.526;2022-11-15T01:31:37;96129.41;;;8.91;61.25
66479;BME280;53294;47.912;13.526;2022-11-15T01:34:04;96132.03;;;8.96;61.22
66479;BME280;53294;47.912;13.526;2022-11-15T01:36:31;96133.13;;;8.95;60.97
66479;BME280;53294;47.912;13.526;2022-11-15T01:38:58;96122.91;;;8.97;60.76
66479;BME280;53294;47.912;13.526;2022-11-15T01:41:33;96125.03;;;9.00;61.13
66479;BME280;53294;47.912;13.526;2022-11-15T01:46:54;96122.28;;;8.57;63.10
66479;BME280;53294;47.912;13.526;2022-11-15T01:49:22;96116.56;;;8.63;63.11
66479;BME280;53294;47.912;13.526;2022-11-15T01:51:50;96121.06;;;8.73;62.43
66479;BME280;53294;47.912;13.526;2022-11-15T01:54:20;96112.47;;;8.71;62.57
66479;BME280;53294;47.912;13.526;2022-11-15T01:56:56;96114.66;;;8.69;62.98
66479;BME280;53294;47.912;13.526;2022-11-15T01:59:26;96103.94;;;8.69;62.94
66479;BME280;53294;47.912;13.526;2022-11-15T02:01:53;96097.94;;;8.77;62.63
66479;BME280;53294;47.912;13.526;2022-11-15T02:04:28;96098.25;;;8.76;63.02
66479;BME280;53294;47.912;13.526;2022-11-15T02:06:55;96095.63;;;8.71;63.02
66479;BME280;53294;47.912;13.526;2022-11-15T02:09:22;96088.38;;;8.71;63.05
66479;BME280;53294;47.912;13.526;2022-11-15T02:11:49;96094.56;;;8.42;64.55
66479;BME280;53294;47.912;13.526;2022-11-15T02:14:18;96087.69;;;8.60;63.69
66479;BME280;53294;47.912;13.526;2022-11-15T02:25:09;96077.16;;;8.93;61.38
66479;BME280;53294;47.912;13.526;2022-11-15T02:35:57;96077.66;;;8.71;61.95
66479;BME280;53294;47.912;13.526;2022-11-15T02:38:40;96072.94;;;8.63;62.22
66479;BME280;53294;47.912;13.526;2022-11-15T02:41:15;96075.63;;;8.63;62.51
66479;BME280;53294;47.912;13.526;2022-11-15T02:43:45;96067.66;;;8.58;62.31
66479;BME280;53294;47.912;13.526;2022-11-15T02:46:48;96062.25;;;8.63;62.95
66479;BME280;53294;47.912;13.526;2022-11-15T02:49:53;96061.09;;;8.69;62.42
66479;BME280;53294;47.912;13.526;2022-11-15T02:52:22;96054.59;;;8.75;61.74
66479;BME280;53294;47.912;13.526;2022-11-15T02:54:57;96059.38;;;8.78;61.83
66479;BME280;53294;47.912;13.526;2022-11-15T03:06:20;96054.50;;;8.86;61.28
66479;BME280;53294;47.912;13.526;2022-11-15T03:09:04;96044.91;;;8.79;61.34
66479;BME280;53294;47.912;13.526;2022-11-15T03:11:39;96050.84;;;8.76;61.49
66479;BME280;53294;47.912;13.526;2022-11-15T03:21:54;96033.34;;;8.60;62.20
66479;BME280;53294;47.912;13.526;2022-11-15T03:24:23;96035.06;;;8.51;62.79
66479;BME280;53294;47.912;13.526;2022-11-15T03:26:53;96034.06;;;8.41;63.08
66479;BME280;53294;47.912;13.526;2022-11-15T03:29:24;96031.94;;;8.43;63.14
66479;BME280;53294;47.912;13.526;2022-11-15T03:31:57;96031.94;;;8.43;62.96
66479;BME280;53294;47.912;13.526;2022-11-15T03:34:39;96024.28;;;8.32;63.98
66479;BME280;53294;47.912;13.526;2022-11-15T03:37:09;96018.09;;;8.31;63.14
66479;BME280;53294;47.912;13.526;2022-11-15T03:39:37;96022.03;;;8.44;62.64
66479;BME280;53294;47.912;13.526;2022-11-15T03:42:23;96027.59;;;8.48;62.79
66479;BME280;53294;47.912;13.526;2022-11-15T03:45:04;96030.97;;;8.58;61.84
66479;BME280;53294;47.912;13.526;2022-11-15T03:47:38;96024.47;;;8.65;61.42
66479;BME280;53294;47.912;13.526;2022-11-15T03:50:17;96022.47;;;8.75;61.31
66479;BME280;53294;47.912;13.526;2022-11-15T03:52:46;96020.19;;;8.63;61.14
66479;BME280;53294;47.912;13.526;2022-11-15T03:55:18;96023.72;;;8.59;61.06
66479;BME280;53294;47.912;13.526;2022-11-15T03:57:48;96019.00;;;8.51;61.21
66479;BME280;53294;47.912;13.526;2022-11-15T04:00:16;96017.78;;;8.38;61.39
66479;BME280;53294;47.912;13.526;2022-11-15T04:02:42;96015.97;;;8.33;61.67
66479;BME280;53294;47.912;13.526;2022-11-15T04:05:09;96016.75;;;8.09;62.48
66479;BME280;53294;47.912;13.526;2022-11-15T04:07:36;96022.69;;;8.01;62.78
66479;BME280;53294;47.912;13.526;2022-11-15T04:10:03;96023.22;;;8.03;62.49
66479;BME280;53294;47.912;13.526;2022-11-15T04:12:33;96014.00;;;8.15;61.89
66479;BME280;53294;47.912;13.526;2022-11-15T04:15:10;96010.78;;;8.18;62.00
66479;BME280;53294;47.912;13.526;2022-11-15T04:20:05;95999.59;;;8.11;61.17
66479;BME280;53294;47.912;13.526;2022-11-15T04:22:53;96008.38;;;8.16;60.64
66479;BME280;53294;47.912;13.526;2022-11-15T04:25:39;96007.47;;;8.02;60.98
66479;BME280;53294;47.912;13.526;2022-11-15T04:28:06;96003.97;;;8.01;60.81
66479;BME280;53294;47.912;13.526;2022-11-15T04:30:32;96008.47;;;7.77;61.30
66479;BME280;53294;47.912;13.526;2022-11-15T04:32:59;96005.78;;;7.82;60.98
66479;BME280;53294;47.912;13.526;2022-11-15T04:35:26;95997.31;;;7.69;61.24
66479;BME280;53294;47.912;13.526;2022-11-15T04:37:53;95996.34;;;7.60;61.57
66479;BME280;53294;47.912;13.526;2022-11-15T04:40:20;96001.16;;;7.58;61.78
66479;BME280;53294;47.912;13.526;2022-11-15T04:42:47;95992.00;;;7.35;63.42
66479;BME280;53294;47.912;13.526;2022-11-15T04:45:13;95989.00;;;7.42;62.54
66479;BME280;53294;47.912;13.526;2022-11-15T04:47:43;95989.72;;;7.13;64.33
66479;BME280;53294;47.912;13.526;2022-11-15T04:50:10;95990.13;;;7.35;62.51
66479;BME280;53294;47.912;13.526;2022-11-15T04:52:41;95988.78;;;7.33;62.50
66479;BME280;53294;47.912;13.526;2022-11-15T04:55:10;95994.59;;;7.06;63.77
66479;BME280;53294;47.912;13.526;2022-11-15T04:57:37;95986.72;;;6.80;64.97
66479;BME280;53294;47.912;13.526;2022-11-15T05:00:06;95983.94;;;7.00;63.68
66479;BME280;53294;47.912;13.526;2022-11-15T05:02:33;95978.97;;;7.23;62.41
66479;BME280;53294;47.912;13.526;2022-11-15T05:05:18;95981.59;;;7.33;61.73
66479;BME280;53294;47.912;13.526;2022-11-15T05:07:45;95989.16;;;7.16;62.22
66479;BME280;53294;47.912;13.526;2022-11-15T05:10:11;95991.28;;;7.24;61.84
66479;BME280;53294;47.912;13.526;2022-11-15T05:12:38;95988.72;;;7.04;62.56
66479;BME280;53294;47.912;13.526;2022-11-15T05:15:05;95979.69;;;6.99;62.73
66479;BME280;53294;47.912;13.526;2022-11-15T05:17:32;95975.38;;;7.04;62.43
66479;BME280;53294;47.912;13.526;2022-11-15T05:19:58;95982.81;;;7.12;61.91
66479;BME280;53294;47.912;13.526;2022-11-15T05:22:25;95971.94;;;6.98;62.64
66479;BME280;53294;47.912;13.526;2022-11-15T05:24:52;95972.41;;;7.05;62.15
66479;BME280;53294;47.912;13.526;2022-11-15T05:27:18;95974.94;;;6.86;62.93
66479;BME280;53294;47.912;13.526;2022-11-15T05:29:45;95978.69;;;6.85;62.60
66479;BME280;53294;47.912;13.526;2022-11-15T05:32:12;95975.47;;;6.88;62.37
66479;BME280;53294;47.912;13.526;2022-11-15T05:34:39;95973.09;;;6.81;62.57
66479;BME280;53294;47.912;13.526;2022-11-15T05:37:06;95968.06;;;6.75;62.95
66479;BME280;53294;47.912;13.526;2022-11-15T05:39:33;95972.16;;;6.62;63.38
66479;BME280;53294;47.912;13.526;2022-11-15T05:42:07;95969.75;;;6.55;63.30
66479;BME280;53294;47.912;13.526;2022-11-15T05:44:36;95964.06;;;6.72;62.39
66479;BME280;53294;47.912;13.526;2022-11-15T05:47:07;95964.38;;;6.65;62.77
66479;BME280;53294;47.912;13.526;2022-11-15T05:49:36;95971.13;;;6.53;63.00
66479;BME280;53294;47.912;13.526;2022-11-15T05:52:07;95971.34;;;6.61;62.42
66479;BME280;53294;47.912;13.526;2022-11-15T05:54:36;95969.81;;;6.45;63.48
66479;BME280;53294;47.912;13.526;2022-11-15T05:57:04;95968.03;;;6.25;64.22
66479;BME280;53294;47.912;13.526;2022-11-15T05:59:31;95963.97;;;6.38;63.59
66479;BME280;53294;47.912;13.526;2022-11-15T06:01:59;95960.22;;;6.44;63.20
66479;BME280;53294;47.912;13.526;2022-11-15T06:04:26;95961.03;;;6.39;63.65
66479;BME280;53294;47.912;13.526;2022-11-15T06:06:53;95964.44;;;6.55;62.46
66479;BME280;53294;47.912;13.526;2022-11-15T06:09:20;95958.06;;;6.51;62.53
66479;BME280;53294;47.912;13.526;2022-11-15T06:11:46;95948.41;;;6.55;62.25
66479;BME280;53294;47.912;13.526;2022-11-15T06:14:14;95952.72;;;6.51;62.57
66479;BME280;53294;47.912;13.526;2022-11-15T06:16:40;95954.38;;;6.42;62.76
66479;BME280;53294;47.912;13.526;2022-11-15T06:19:07;95953.56;;;6.36;62.65
66479;BME280;53294;47.912;13.526;2022-11-15T06:21:34;95942.59;;;6.48;62.29
66479;BME280;53294;47.912;13.526;2022-11-15T06:24:00;95949.84;;;6.32;63.14
66479;BME280;53294;47.912;13.526;2022-11-15T06:26:27;95952.31;;;6.13;63.95
66479;BME280;53294;47.912;13.526;2022-11-15T06:28:54;95960.88;;;6.10;63.86
66479;BME280;53294;47.912;13.526;2022-11-15T06:31:20;95959.81;;;6.11;63.83
66479;BME280;53294;47.912;13.526;2022-11-15T06:33:47;95952.84;;;6.20;63.38
66479;BME280;53294;47.912;13.526;2022-11-15T06:36:16;95952.25;;;6.34;62.36
66479;BME280;53294;47.912;13.526;2022-11-15T06:38:44;95954.38;;;6.37;62.01
66479;BME280;53294;47.912;13.526;2022-11-15T06:41:12;95954.38;;;6.42;61.96
66479;BME280;53294;47.912;13.526;2022-11-15T06:43:39;95958.34;;;6.44;61.39
66479;BME280;53294;47.912;13.526;2022-11-15T06:46:06;95949.53;;;6.44;61.68
66479;BME280;53294;47.912;13.526;2022-11-15T06:48:34;95951.16;;;6.45;61.85
66479;BME280;53294;47.912;13.526;2022-11-15T06:51:02;95956.50;;;6.40;62.21
66479;BME280;53294;47.912;13.526;2022-11-15T06:53:29;95954.91;;;6.34;62.26
66479;BME280;53294;47.912;13.526;2022-11-15T06:56:01;95958.19;;;6.20;62.92
66479;BME280;53294;47.912;13.526;2022-11-15T06:58:28;95957.69;;;6.08;63.56
66479;BME280;53294;47.912;13.526;2022-11-15T07:01:07;95956.03;;;6.22;63.08
66479;BME280;53294;47.912;13.526;2022-11-15T07:03:35;95953.94;;;6.14;63.52
66479;BME280;53294;47.912;13.526;2022-11-15T07:06:02;95949.63;;;6.23;63.11
66479;BME280;53294;47.912;13.526;2022-11-15T07:08:33;95953.34;;;6.33;63.25
66479;BME280;53294;47.912;13.526;2022-11-15T07:11:02;95953.34;;;6.27;63.92
66479;BME280;53294;47.912;13.526;2022-11-15T07:13:31;95951.22;;;6.29;64.33
66479;BME280;53294;47.912;13.526;2022-11-15T07:16:06;95951.97;;;6.35;64.11
66479;BME280;53294;47.912;13.526;2022-11-15T07:18:34;95951.16;;;6.45;64.02
66479;BME280;53294;47.912;13.526;2022-11-15T07:21:07;95946.28;;;6.57;64.03
66479;BME280;53294;47.912;13.526;2022-11-15T07:23:38;95949.97;;;6.67;63.87
66479;BME280;53294;47.912;13.526;2022-11-15T07:26:05;95936.59;;;6.72;63.96
66479;BME280;53294;47.912;13.526;2022-11-15T07:28:32;95941.84;;;6.82;63.76
66479;BME280;53294;47.912;13.526;2022-11-15T07:31:04;95940.75;;;6.88;63.93
66479;BME280;53294;47.912;13.526;2022-11-15T07:33:31;95932.19;;;6.91;64.44
66479;BME280;53294;47.912;13.526;2022-11-15T07:35:59;95928.97;;;6.94;64.51
66479;BME280;53294;47.912;13.526;2022-11-15T07:38:28;95935.59;;;7.02;64.61
66479;BME280;53294;47.912;13.526;2022-11-15T07:40:59;95943.81;;;7.11;64.65
66479;BME280;53294;47.912;13.526;2022-11-15T07:43:27;95939.75;;;7.18;64.75
66479;BME280;53294;47.912;13.526;2022-11-15T07:46:04;95932.41;;;7.34;64.77
66479;BME280;53294;47.912;13.526;2022-11-15T07:48:31;95924.44;;;7.29;66.00
66479;BME280;53294;47.912;13.526;2022-11-15T07:51:14;95924.25;;;7.50;66.66
66479;BME280;53294;47.912;13.526;2022-11-15T07:53:42;95920.41;;;7.61;66.61
66479;BME280;53294;47.912;13.526;2022-11-15T07:56:09;95923.13;;;7.56;69.21
66479;BME280;53294;47.912;13.526;2022-11-15T07:58:36;95927.91;;;7.59;71.63
66479;BME280;53294;47.912;13.526;2022-11-15T08:01:07;95926.69;;;7.46;72.78
66479;BME280;53294;47.912;13.526;2022-11-15T08:03:35;95915.09;;;7.56;72.87
66479;BME280;53294;47.912;13.526;2022-11-15T08:06:02;95920.94;;;7.63;74.60
66479;BME280;53294;47.912;13.526;2022-11-15T08:08:29;95920.66;;;7.89;73.21
66479;BME280;53294;47.912;13.526;2022-11-15T08:10:59;95912.34;;;8.15;73.16
66479;BME280;53294;47.912;13.526;2022-11-15T08:13:26;95910.16;;;8.41;71.74
66479;BME280;53294;47.912;13.526;2022-11-15T08:16:00;95912.00;;;8.21;72.30
66479;BME280;53294;47.912;13.526;2022-11-15T08:18:27;95916.09;;;8.14;73.01
66479;BME280;53294;47.912;13.526;2022-11-15T08:20:57;95897.06;;;8.39;72.92
66479;BME280;53294;47.912;13.526;2022-11-15T08:23:24;95908.09;;;8.57;72.93
66479;BME280;53294;47.912;13.526;2022-11-15T08:25:51;95899.72;;;8.83;72.27
66479;BME280;53294;47.912;13.526;2022-11-15T08:28:18;95903.59;;;9.09;73.29
66479;BME280;53294;47.912;13.526;2022-11-15T08:30:44;95897.59;;;9.31;72.25
66479;BME280;53294;47.912;13.526;2022-11-15T08:33:13;95899.38;;;9.69;71.75
66479;BME280;53294;47.912;13.526;2022-11-15T08:35:41;95891.22;;;10.30;69.82
66479;BME280;53294;47.912;13.526;2022-11-15T08:38:07;95883.34;;;10.98;67.35
66479;BME280;53294;47.912;13.526;2022-11-15T08:40:35;95871.31;;;11.72;65.43
66479;BME280;53294;47.912;13.526;2022-11-15T08:43:01;95874.06;;;11.89;65.46
66479;BME280;53294;47.912;13.526;2022-11-15T08:45:34;95877.22;;;11.28;64.97
66479;BME280;53294;47.912;13.526;2022-11-15T08:48:02;95882.00;;;11.09;65.99
66479;BME280;53294;47.912;13.526;2022-11-15T08:50:29;95870.13;;;10.87;66.47
66479;BME280;53294;47.912;13.526;2022-11-15T08:52:56;95864.88;;;10.82;67.49
66479;BME280;53294;47.912;13.526;2022-11-15T08:55:22;95871.50;;;10.99;66.70
66479;BME280;53294;47.912;13.526;2022-11-15T08:57:50;95862.91;;;11.42;65.88
66479;BME280;53294;47.912;13.526;2022-11-15T09:00:17;95861.38;;;11.81;64.69
66479;BME280;53294;47.912;13.526;2022-11-15T09:02:46;95864.38;;;11.79;64.25
66479;BME280;53294;47.912;13.526;2022-11-15T09:05:13;95864.16;;;11.98;62.98
66479;BME280;53294;47.912;13.526;2022-11-15T09:07:41;95863.41;;;12.24;62.94
66479;BME280;53294;47.912;13.526;2022-11-15T09:10:08;95859.03;;;12.46;62.48
66479;BME280;53294;47.912;13.526;2022-11-15T09:12:35;95855.88;;;12.61;61.35
66479;BME280;53294;47.912;13.526;2022-11-15T09:15:02;95856.00;;;12.47;61.30
66479;BME280;53294;47.912;13.526;2022-11-15T09:17:29;95868.06;;;12.32;62.93
66479;BME280;53294;47.912;13.526;2022-11-15T09:19:55;95862.84;;;12.45;62.57
66479;BME280;53294;47.912;13.526;2022-11-15T09:22:22;95856.97;;;12.34;63.26
66479;BME280;53294;47.912;13.526;2022-11-15T09:24:49;95857.16;;;12.90;62.86
66479;BME280;53294;47.912;13.526;2022-11-15T09:27:15;95856.66;;;13.32;61.55
66479;BME280;53294;47.912;13.526;2022-11-15T09:29:42;95852.03;;;13.88;60.04
66479;BME280;53294;47.912;13.526;2022-11-15T09:32:09;95845.31;;;14.33;59.01
66479;BME280;53294;47.912;13.526;2022-11-15T09:34:35;95846.22;;;13.77;57.58
66479;BME280;53294;47.912;13.526;2022-11-15T09:37:02;95843.75;;;13.55;59.36
66479;BME280;53294;47.912;13.526;2022-11-15T09:39:28;95841.31;;;14.09;57.29
66479;BME280;53294;47.912;13.526;2022-11-15T09:50:43;95812.88;;;15.88;52.95
66479;BME280;53294;47.912;13.526;2022-11-15T09:53:17;95811.00;;;14.97;54.06
66479;BME280;53294;47.912;13.526;2022-11-15T09:56:22;95801.66;;;15.06;55.46
66479;BME280;53294;47.912;13.526;2022-11-15T10:04:16;95785.94;;;15.91;53.49
66479;BME280;53294;47.912;13.526;2022-11-15T10:09:47;95777.09;;;16.31;50.92
66479;BME280;53294;47.912;13.526;2022-11-15T10:12:15;95783.00;;;15.96;52.01
66479;BME280;53294;47.912;13.526;2022-11-15T10:14:45;95779.56;;;15.75;53.74
66479;BME280;53294;47.912;13.526;2022-11-15T10:22:45;95762.66;;;16.15;50.88
66479;BME280;53294;47.912;13.526;2022-11-15T10:25:25;95759.59;;;15.42;52.58
66479;BME280;53294;47.912;13.526;2022-11-15T10:30:36;95747.66;;;16.18;51.97
66479;BME280;53294;47.912;13.526;2022-11-15T10:33:13;95744.78;;;16.67;49.26
66479;BME280;53294;47.912;13.526;2022-11-15T10:35:43;95734.88;;;16.59;49.71
66479;BME280;53294;47.912;13.526;2022-11-15T10:38:11;95733.06;;;16.63;50.08
66479;BME280;53294;47.912;13.526;2022-11-15T10:40:39;95728.13;;;16.81;48.44
66479;BME280;53294;47.912;13.526;2022-11-15T10:45:37;95716.63;;;16.03;49.60
66479;BME280;53294;47.912;13.526;2022-11-15T10:50:44;95697.34;;;16.32;49.66
66479;BME280;53294;47.912;13.526;2022-11-15T10:53:30;95696.09;;;16.71;49.64
66479;BME280;53294;47.912;13.526;2022-11-15T10:56:07;95683.38;;;17.67;46.09
66479;BME280;53294;47.912;13.526;2022-11-15T10:58:39;95689.75;;;17.90;48.49
66479;BME280;53294;47.912;13.526;2022-11-15T11:01:17;95682.56;;;18.76;45.14
66479;BME280;53294;47.912;13.526;2022-11-15T11:03:57;95674.97;;;19.55;44.48
66479;BME280;53294;47.912;13.526;2022-11-15T11:06:25;95670.41;;;20.16;43.19
66479;BME280;53294;47.912;13.526;2022-11-15T11:08:56;95660.53;;;20.35;40.84
66479;BME280;53294;47.912;13.526;2022-11-15T11:11:25;95662.94;;;19.56;42.75
66479;BME280;53294;47.912;13.526;2022-11-15T11:13:52;95650.34;;;19.74;42.31
66479;BME280;53294;47.912;13.526;2022-11-15T11:33:38;95612.34;;;19.82;42.67
66479;BME280;53294;47.912;13.526;2022-11-15T11:38:50;95616.88;;;19.21;42.24
66479;BME280;53294;47.912;13.526;2022-11-15T11:46:48;95597.94;;;21.31;39.79
66479;BME280;53294;47.912;13.526;2022-11-15T11:55:04;95592.75;;;20.37;40.22
66479;BME280;53294;47.912;13.526;2022-11-15T11:57:44;95582.03;;;21.44;38.47
66479;BME280;53294;47.912;13.526;2022-11-15T12:00:21;95582.75;;;21.34;38.94
66479;BME280;53294;47.912;13.526;2022-11-15T12:11:35;95573.09;;;20.95;38.80
66479;BME280;53294;47.912;13.526;2022-11-15T12:14:22;95566.91;;;21.54;37.54
66479;BME280;53294;47.912;13.526;2022-11-15T12:16:50;95564.91;;;20.54;38.35
66479;BME280;53294;47.912;13.526;2022-11-15T12:19:17;95563.69;;;20.14;39.34
66479;BME280;53294;47.912;13.526;2022-11-15T12:24:20;95566.69;;;18.95;42.10
66479;BME280;53294;47.912;13.526;2022-11-15T12:26:54;95550.84;;;20.15;40.53
66479;BME280;53294;47.912;13.526;2022-11-15T12:31:53;95546.13;;;19.78;39.43
66479;BME280;53294;47.912;13.526;2022-11-15T12:34:46;95543.66;;;20.37;39.89
66479;BME280;53294;47.912;13.526;2022-11-15T12:45:34;95554.22;;;18.94;40.92
66479;BME280;53294;47.912;13.526;2022-11-15T13:01:09;95550.91;;;16.13;47.65
66479;BME280;53294;47.912;13.526;2022-11-15T13:11:57;95522.00;;;16.81;46.42
66479;BME280;53294;47.912;13.526;2022-11-15T13:14:45;95509.44;;;17.79;45.24
66479;BME280;53294;47.912;13.526;2022-11-15T13:19:53;95504.22;;;19.29;40.59
66479;BME280;53294;47.912;13.526;2022-11-15T13:22:23;95505.75;;;18.30;42.72
66479;BME280;53294;47.912;13.526;2022-11-15T13:27:47;95501.00;;;18.93;40.92
66479;BME280;53294;47.912;13.526;2022-11-15T13:30:20;95496.81;;;18.53;42.15
66479;BME280;53294;47.912;13.526;2022-11-15T13:32:48;95490.59;;;18.52;42.68
66479;BME280;53294;47.912;13.526;2022-11-15T13:35:39;95503.88;;;17.72;42.52
66479;BME280;53294;47.912;13.526;2022-11-15T13:41:33;95490.06;;;19.77;40.28
66479;BME280;53294;47.912;13.526;2022-11-15T13:44:00;95496.19;;;19.70;40.30
66479;BME280;53294;47.912;13.526;2022-11-15T13:46:32;95487.88;;;19.89;39.04
66479;BME280;53294;47.912;13.526;2022-11-15T13:49:00;95487.69;;;19.75;38.86
66479;BME280;53294;47.912;13.526;2022-11-15T13:56:31;95486.53;;;19.42;39.80
66479;BME280;53294;47.912;13.526;2022-11-15T13:59:08;95485.75;;;19.76;39.45
66479;BME280;53294;47.912;13.526;2022-11-15T14:01:35;95483.56;;;19.54;39.15
66479;BME280;53294;47.912;13.526;2022-11-15T14:04:03;95475.22;;;19.74;38.53
66479;BME280;53294;47.912;13.526;2022-11-15T14:06:30;95478.69;;;19.71;38.42
66479;BME280;53294;47.912;13.526;2022-11-15T14:11:35;95469.34;;;19.38;38.78
66479;BME280;53294;47.912;13.526;2022-11-15T14:16:36;95469.34;;;19.38;39.06
66479;BME280;53294;47.912;13.526;2022-11-15T14:19:05;95472.28;;;19.26;39.07
66479;BME280;53294;47.912;13.526;2022-11-15T14:21:32;95478.88;;;18.71;39.27
66479;BME280;53294;47.912;13.526;2022-11-15T14:24:20;95471.69;;;18.36;40.20
66479;BME280;53294;47.912;13.526;2022-11-15T14:26:47;95465.59;;;18.20;40.43
66479;BME280;53294;47.912;13.526;2022-11-15T14:29:28;95474.50;;;17.77;41.43
66479;BME280;53294;47.912;13.526;2022-11-15T14:32:21;95466.13;;;17.86;40.78
66479;BME280;53294;47.912;13.526;2022-11-15T14:34:49;95477.44;;;17.69;40.53
66479;BME280;53294;47.912;13.526;2022-11-15T14:37:30;95469.38;;;17.53;41.07
66479;BME280;53294;47.912;13.526;2022-11-15T14:40:05;95474.34;;;17.31;41.26
66479;BME280;53294;47.912;13.526;2022-11-15T14:42:32;95468.41;;;16.74;42.09
66479;BME280;53294;47.912;13.526;2022-11-15T14:44:58;95466.16;;;16.60;42.12
66479;BME280;53294;47.912;13.526;2022-11-15T14:47:25;95484.53;;;16.35;42.62
66479;BME280;53294;47.912;13.526;2022-11-15T14:49:52;95481.97;;;16.10;42.92
66479;BME280;53294;47.912;13.526;2022-11-15T14:52:29;95485.44;;;16.11;42.88
66479;BME280;53294;47.912;13.526;2022-11-15T14:54:59;95481.56;;;15.80;43.26
66479;BME280;53294;47.912;13.526;2022-11-15T14:57:28;95483.22;;;15.44;43.74
66479;BME280;53294;47.912;13.526;2022-11-15T14:59:55;95478.13;;;15.14;44.58
66479;BME280;53294;47.912;13.526;2022-11-15T15:02:26;95488.94;;;15.14;44.66
66479;BME280;53294;47.912;13.526;2022-11-15T15:04:53;95481.34;;;14.92;44.53
66479;BME280;53294;47.912;13.526;2022-11-15T15:07:21;95482.88;;;14.55;45.64
66479;BME280;53294;47.912;13.526;2022-11-15T15:09:48;95483.53;;;14.40;45.72
66479;BME280;53294;47.912;13.526;2022-11-15T15:12:20;95483.09;;;14.50;45.47
66479;BME280;53294;47.912;13.526;2022-11-15T15:14:48;95486.94;;;14.25;46.42
66479;BME280;53294;47.912;13.526;2022-11-15T15:17:16;95486.88;;;14.00;46.72
66479;BME280;53294;47.912;13.526;2022-11-15T15:19:43;95481.22;;;13.93;46.54
66479;BME280;53294;47.912;13.526;2022-11-15T15:22:18;95476.50;;;13.90;46.43
66479;BME280;53294;47.912;13.526;2022-11-15T15:24:45;95483.88;;;13.80;46.56
66479;BME280;53294;47.912;13.526;2022-11-15T15:27:12;95479.16;;;13.77;46.35
66479;BME280;53294;47.912;13.526;2022-11-15T15:29:39;95482.22;;;13.34;47.63
66479;BME280;53294;47.912;13.526;2022-11-15T15:32:06;95485.88;;;13.29;47.80
66479;BME280;53294;47.912;13.526;2022-11-15T15:34:33;95477.09;;;13.41;46.83
66479;BME280;53294;47.912;13.526;2022-11-15T15:37:25;95478.00;;;13.24;47.81
66479;BME280;53294;47.912;13.526;2022-11-15T15:39:53;95470.56;;;13.21;47.37
66479;BME280;53294;47.912;13.526;2022-11-15T15:42:21;95473.25;;;13.21;47.41
66479;BME280;53294;47.912;13.526;2022-11-15T15:44:49;95475.88;;;13.08;47.48
66479;BME280;53294;47.912;13.526;2022-11-15T15:47:19;95470.22;;;13.01;47.76
66479;BME280;53294;47.912;13.526;2022-11-15T15:49:46;95471.25;;;12.88;47.83
66479;BME280;53294;47.912;13.526;2022-11-15T15:52:13;95473.88;;;12.75;48.30